MABK1: Cottonwood River, Below Marion

Data processed at Wed May 22 2019 23:50


All information presented herein is the property of the government of the United States of America and may be revised or deleted at any time without prior notice.
Dissemination of this information without the expressed written consent of the Public Affairs Office, Tulsa District U.S. Army Corps of Engineers is strictly prohibited.
These data are gathered electronically and, as presented, have not undergone any form of quality control. These data are not guaranteed to be valid or correct.
Go to home page.
Go to station list.
Go to home page.

Upstream stations:

Downstream station:
Previous Day
Next Day
Current Day
    
SHEF ID:       MABK1     N COTTONWOOD R BL MARION LK, KS
STATION TYPE:  
Regulating: Stage =    17.80, Flow =   ERROR

               PRECIP     STAGE  RIV-FLOW  BAT-LOAD
                   in        ft       cfs      volt
              Ccp-Rev   Ccp-Rev   Ccp-Rev   Ccp-Rev
(US/Central)
05/22 00:00      0.00     21.67      ----     12.73
05/22 01:00      0.00     21.67      ----     12.73
05/22 02:00      0.00     21.49      ----     12.73
05/22 03:00      0.00     21.18      ----     12.65
05/22 04:00      0.00     20.64      ----     12.65
05/22 05:00      0.00     19.92      ----     12.65
05/22 06:00      0.00     18.96      ----     12.65
05/22 07:00      0.00     17.97      ----     12.65
05/22 08:00      0.00     17.03      5629     12.89
05/22 09:00      0.00     16.24      5103     13.37
05/22 10:00      0.00     15.71      4760     13.21
05/22 11:00      0.00     15.22      4450     13.29
05/22 12:00      0.00     14.93      4270     13.29
05/22 13:00      0.00     14.79      4184     13.37
05/22 14:00      0.00     14.71      4135     13.37
05/22 15:00      0.00     14.55      4037     13.21
05/22 16:00      0.00     14.53      4025     13.13
05/22 17:00      0.00     14.48      3995     13.13
05/22 18:00      0.00     14.47      3989     13.13
05/22 19:00      0.00     14.41      3953     12.89
05/22 20:00      0.00     14.39      3941     12.81
05/22 21:00      0.00     14.32      3899     12.81
05/22 22:00      0.00     14.34      3911     12.73
05/22 23:00      0.00     14.30      3887     12.73